Time;durP1;ratioP1;P1;durP2;ratioP2;P2;SDS_P1;SDS_P2;PMS_P1;PMS_P2;Temp;Humidity;BMP_temperature;BMP_pressure;BME280_temperature;BME280_humidity;BME280_pressure;Samples;Min_cycle;Max_cycle;Signal;HPM_P1;HPM_P2
2023/03/27 00:00:21;;;;;;;;;;;2.50;27.70;;;;;;5085984;28;19930;-63
2023/03/27 00:02:48;;;;;;;;;;;2.50;22.80;;;;;;5087267;28;19920;-62
2023/03/27 00:05:15;;;;;;;;;;;2.50;22.40;;;;;;5085303;28;19920;-63
2023/03/27 00:07:41;;;;;;;;;;;2.40;24.40;;;;;;5084994;28;19927;-63
2023/03/27 00:10:08;;;;;;;;;;;2.40;26.60;;;;;;5084873;28;19927;-63
2023/03/27 00:12:35;;;;;;;;;;;2.40;26.10;;;;;;5084930;28;19923;-63
2023/03/27 00:15:01;;;;;;;;;;;2.40;27.20;;;;;;5088167;28;19920;-63
2023/03/27 00:17:30;;;;;;;;;;;2.40;31.80;;;;;;5084944;28;19946;-63
2023/03/27 00:19:56;;;;;;;;;;;2.30;35.10;;;;;;5084474;28;20010;-63
2023/03/27 00:22:23;;;;;;;;;;;2.40;33.10;;;;;;5084387;28;19924;-63
2023/03/27 00:24:49;;;;;;;;;;;2.40;32.70;;;;;;5085235;28;20498;-63
2023/03/27 00:27:16;;;;;;;;;;;2.40;33.20;;;;;;5086571;28;19927;-63
2023/03/27 00:29:43;;;;;;;;;;;2.40;33.80;;;;;;5084650;28;19920;-60
2023/03/27 00:32:09;;;;;;;;;;;2.30;33.20;;;;;;5084705;28;19920;-63
2023/03/27 00:34:37;;;;;;;;;;;2.40;36.70;;;;;;5086712;28;19942;-61
2023/03/27 00:37:04;;;;;;;;;;;2.30;34.70;;;;;;5085458;28;19924;-62
2023/03/27 00:39:30;;;;;;;;;;;2.30;36.30;;;;;;5084179;28;19925;-63
2023/03/27 00:41:57;;;;;;;;;;;2.30;40.80;;;;;;5085673;28;19920;-63
2023/03/27 00:44:24;;;;;;;;;;;2.30;43.30;;;;;;5086049;28;19927;-62
2023/03/27 00:46:53;;;;;;;;;;;2.30;47.60;;;;;;5080104;28;20126;-62
2023/03/27 00:49:20;;;;;;;;;;;2.20;52.30;;;;;;5084654;28;20290;-62
2023/03/27 00:51:48;;;;;;;;;;;2.20;55.50;;;;;;5086906;28;19974;-63
2023/03/27 00:54:20;;;;;;;;;;;2.20;57.30;;;;;;5084538;28;19947;-63
2023/03/27 00:56:48;;;;;;;;;;;2.20;62.10;;;;;;5083214;28;19920;-61
2023/03/27 00:59:18;;;;;;;;;;;2.20;65.50;;;;;;5084751;28;19924;-61
2023/03/27 01:01:44;;;;;;;;;;;2.10;69.10;;;;;;5085672;28;19920;-63
2023/03/27 01:04:11;;;;;;;;;;;2.10;72.90;;;;;;5083686;28;19927;-63
2023/03/27 01:06:40;;;;;;;;;;;2.00;77.20;;;;;;5083839;28;20082;-63
2023/03/27 01:09:09;;;;;;;;;;;2.00;83.00;;;;;;5087224;28;19927;-61
2023/03/27 01:11:38;;;;;;;;;;;2.00;89.90;;;;;;5083666;28;20022;-63
2023/03/27 01:14:09;;;;;;;;;;;1.90;92.00;;;;;;5080610;28;20020;-63
2023/03/27 01:16:40;;;;;;;;;;;1.80;94.80;;;;;;5083039;28;19966;-63
2023/03/27 01:19:20;;;;;;;;;;;1.80;97.70;;;;;;5081013;28;20436;-61
2023/03/27 01:21:57;;;;;;;;;;;1.80;99.90;;;;;;5075059;28;19942;-63
2023/03/27 01:24:37;;;;;;;;;;;1.70;99.90;;;;;;5085628;28;19923;-63
2023/03/27 01:27:05;;;;;;;;;;;1.70;99.90;;;;;;5084383;28;19920;-63
2023/03/27 01:29:47;;;;;;;;;;;1.60;99.90;;;;;;5083788;28;20379;-63
2023/03/27 01:32:25;;;;;;;;;;;1.60;99.90;;;;;;5078476;28;19920;-62
2023/03/27 01:34:56;;;;;;;;;;;1.60;99.90;;;;;;5083114;28;19966;-63
2023/03/27 01:37:36;;;;;;;;;;;1.50;99.90;;;;;;5083471;28;20341;-62
2023/03/27 01:40:06;;;;;;;;;;;1.50;99.90;;;;;;5082195;28;19924;-62
2023/03/27 01:42:35;;;;;;;;;;;1.40;99.90;;;;;;5082780;28;20512;-63
2023/03/27 01:45:04;;;;;;;;;;;1.40;99.90;;;;;;5085158;28;20015;-63
2023/03/27 01:47:40;;;;;;;;;;;1.40;99.90;;;;;;5083113;28;19924;-63
2023/03/27 01:50:10;;;;;;;;;;;1.40;99.90;;;;;;5086986;28;19966;-63
2023/03/27 01:52:39;;;;;;;;;;;1.30;99.90;;;;;;5084078;28;20038;-63
2023/03/27 01:55:10;;;;;;;;;;;1.30;99.90;;;;;;5087066;28;19924;-62
2023/03/27 01:57:40;;;;;;;;;;;1.30;99.90;;;;;;5079980;28;19924;-62
2023/03/27 02:00:14;;;;;;;;;;;1.20;99.90;;;;;;5082693;28;19948;-63
2023/03/27 02:02:41;;;;;;;;;;;1.30;99.90;;;;;;5083277;28;19923;-63
2023/03/27 02:05:11;;;;;;;;;;;1.20;99.90;;;;;;5084805;28;19920;-63
2023/03/27 02:07:39;;;;;;;;;;;1.20;99.90;;;;;;5082792;28;19966;-62
2023/03/27 02:10:09;;;;;;;;;;;1.10;99.90;;;;;;5082413;28;19924;-61
2023/03/27 02:12:38;;;;;;;;;;;1.10;99.90;;;;;;5083788;28;20079;-63
2023/03/27 02:15:08;;;;;;;;;;;1.10;99.90;;;;;;5084601;28;19920;-63
2023/03/27 02:17:37;;;;;;;;;;;1.10;99.90;;;;;;5083159;28;20007;-63
2023/03/27 02:20:09;;;;;;;;;;;1.10;99.90;;;;;;5082190;28;19920;-63
2023/03/27 02:22:38;;;;;;;;;;;1.00;99.90;;;;;;5083544;28;19974;-63
2023/03/27 02:25:20;;;;;;;;;;;1.10;99.90;;;;;;5084488;28;19967;-63
2023/03/27 02:27:49;;;;;;;;;;;1.00;99.90;;;;;;5081603;28;19920;-62
2023/03/27 02:30:22;;;;;;;;;;;1.00;99.90;;;;;;5083547;28;19920;-62
2023/03/27 02:32:52;;;;;;;;;;;1.00;99.90;;;;;;5084378;28;19920;-63
2023/03/27 02:35:26;;;;;;;;;;;1.00;99.90;;;;;;5083172;28;19920;-63
2023/03/27 02:37:59;;;;;;;;;;;1.00;99.90;;;;;;5078285;28;19920;-60
2023/03/27 02:40:32;;;;;;;;;;;0.90;99.90;;;;;;5081934;28;19927;-63
2023/03/27 02:43:03;;;;;;;;;;;0.90;99.90;;;;;;5080456;28;19924;-63
2023/03/27 02:45:35;;;;;;;;;;;0.90;99.90;;;;;;5081320;28;19920;-63
2023/03/27 02:48:06;;;;;;;;;;;0.90;99.90;;;;;;5082305;28;19981;-63
2023/03/27 02:50:36;;;;;;;;;;;0.80;99.90;;;;;;5083936;28;19919;-63
2023/03/27 02:53:04;;;;;;;;;;;0.80;99.90;;;;;;5081762;28;20390;-62
2023/03/27 02:55:34;;;;;;;;;;;0.80;99.90;;;;;;5084069;28;19956;-63
2023/03/27 02:58:05;;;;;;;;;;;0.80;99.90;;;;;;5081028;28;19973;-63
2023/03/27 03:00:33;;;;;;;;;;;0.80;99.90;;;;;;5077659;28;19925;-63
2023/03/27 03:03:01;;;;;;;;;;;0.80;99.90;;;;;;5082381;28;19920;-63
2023/03/27 03:05:27;;;;;;;;;;;0.70;99.90;;;;;;5083698;28;19966;-64
2023/03/27 03:07:56;;;;;;;;;;;0.70;99.90;;;;;;5082409;28;19920;-63
2023/03/27 03:10:23;;;;;;;;;;;0.60;99.90;;;;;;5081301;28;19943;-63
2023/03/27 03:12:50;;;;;;;;;;;0.70;99.90;;;;;;5083054;28;20298;-63
2023/03/27 03:15:18;;;;;;;;;;;0.60;99.90;;;;;;5083397;28;20402;-63
2023/03/27 03:17:45;;;;;;;;;;;0.60;99.90;;;;;;5077339;28;19920;-63
2023/03/27 03:20:12;;;;;;;;;;;0.50;99.90;;;;;;5082348;28;19928;-62
2023/03/27 03:22:40;;;;;;;;;;;0.50;99.90;;;;;;5083445;28;20386;-62
2023/03/27 03:25:07;;;;;;;;;;;0.50;99.90;;;;;;5082165;28;20393;-63
2023/03/27 03:27:34;;;;;;;;;;;0.50;99.90;;;;;;5080273;28;20392;-61
2023/03/27 03:30:00;;;;;;;;;;;0.50;99.90;;;;;;5083673;28;19920;-62
2023/03/27 03:32:29;;;;;;;;;;;0.50;99.90;;;;;;5083134;28;19920;-64
2023/03/27 03:34:55;;;;;;;;;;;0.50;99.90;;;;;;5081174;28;20015;-66
2023/03/27 03:37:27;;;;;;;;;;;0.50;99.90;;;;;;5084523;28;19925;-62
2023/03/27 03:39:54;;;;;;;;;;;0.50;99.90;;;;;;5081068;28;20011;-65
2023/03/27 03:42:20;;;;;;;;;;;0.50;99.90;;;;;;5082516;28;19920;-62
2023/03/27 03:44:47;;;;;;;;;;;0.50;99.90;;;;;;5083510;28;19973;-63
2023/03/27 03:47:13;;;;;;;;;;;0.50;99.90;;;;;;5081104;28;20314;-63
2023/03/27 03:49:42;;;;;;;;;;;0.40;99.90;;;;;;5084644;28;19927;-63
2023/03/27 03:52:08;;;;;;;;;;;0.40;99.90;;;;;;5080861;28;20346;-63
2023/03/27 03:54:37;;;;;;;;;;;0.40;99.90;;;;;;5081973;28;20026;-62
2023/03/27 03:57:04;;;;;;;;;;;0.40;99.90;;;;;;5068346;28;20421;-64
2023/03/27 03:59:30;;;;;;;;;;;0.40;99.90;;;;;;5078247;28;19920;-64
2023/03/27 04:01:57;;;;;;;;;;;0.40;99.90;;;;;;5078906;28;19928;-64
2023/03/27 04:04:23;;;;;;;;;;;0.40;99.90;;;;;;5081990;28;19931;-63
2023/03/27 04:06:56;;;;;;;;;;;0.40;99.90;;;;;;5080292;28;19921;-64
2023/03/27 04:09:23;;;;;;;;;;;0.40;99.90;;;;;;5083588;28;20018;-64
2023/03/27 04:11:49;;;;;;;;;;;0.40;99.90;;;;;;5081860;28;19928;-63
2023/03/27 04:14:16;;;;;;;;;;;0.40;99.90;;;;;;5080609;28;19921;-63
2023/03/27 04:16:42;;;;;;;;;;;0.40;99.90;;;;;;5082470;28;20290;-63
2023/03/27 04:19:09;;;;;;;;;;;0.30;99.90;;;;;;5082474;28;19927;-62
2023/03/27 04:21:36;;;;;;;;;;;0.30;99.90;;;;;;5080391;28;19926;-63
2023/03/27 04:24:04;;;;;;;;;;;0.40;99.90;;;;;;5082709;28;19974;-64
2023/03/27 04:26:31;;;;;;;;;;;0.40;99.90;;;;;;5080098;28;19920;-64
2023/03/27 04:28:58;;;;;;;;;;;0.40;99.90;;;;;;5082357;28;20014;-63
2023/03/27 04:31:25;;;;;;;;;;;0.40;99.90;;;;;;5079882;28;19973;-61
2023/03/27 04:33:51;;;;;;;;;;;0.40;99.90;;;;;;5079371;28;19924;-62
2023/03/27 04:36:18;;;;;;;;;;;0.40;99.90;;;;;;5081430;28;19920;-63
2023/03/27 04:38:46;;;;;;;;;;;0.40;99.90;;;;;;5078993;28;19961;-62
2023/03/27 04:41:15;;;;;;;;;;;0.40;99.90;;;;;;5085029;28;19932;-63
2023/03/27 04:43:42;;;;;;;;;;;0.40;99.90;;;;;;5084084;28;19928;-62
2023/03/27 04:46:08;;;;;;;;;;;0.40;99.90;;;;;;5085963;28;19920;-62
2023/03/27 04:48:37;;;;;;;;;;;0.50;99.90;;;;;;5085501;28;19939;-61
2023/03/27 04:51:04;;;;;;;;;;;0.50;99.90;;;;;;5084148;28;19924;-61
2023/03/27 04:53:33;;;;;;;;;;;0.50;99.90;;;;;;5084807;28;19927;-62
2023/03/27 04:56:00;;;;;;;;;;;0.50;99.90;;;;;;5082730;28;19927;-61
2023/03/27 04:58:27;;;;;;;;;;;0.50;99.90;;;;;;5085341;28;20370;-61
2023/03/27 05:00:54;;;;;;;;;;;0.50;99.90;;;;;;5086278;28;19931;-62
2023/03/27 05:03:21;;;;;;;;;;;0.60;99.90;;;;;;5075986;28;20574;-62
2023/03/27 05:05:48;;;;;;;;;;;0.60;99.90;;;;;;5082502;28;20023;-61
2023/03/27 05:08:15;;;;;;;;;;;0.60;99.90;;;;;;5083377;28;20019;-61
2023/03/27 05:10:42;;;;;;;;;;;0.70;99.90;;;;;;5082098;28;19926;-61
2023/03/27 05:13:08;;;;;;;;;;;0.60;99.90;;;;;;5090334;28;20328;-62
2023/03/27 05:15:37;;;;;;;;;;;0.60;99.90;;;;;;5085018;28;19924;-62
2023/03/27 05:18:05;;;;;;;;;;;0.60;99.90;;;;;;5085703;28;19932;-61
2023/03/27 05:20:32;;;;;;;;;;;0.60;99.90;;;;;;5086188;28;20370;-61
2023/03/27 05:22:59;;;;;;;;;;;0.60;99.90;;;;;;5082143;28;19984;-61
2023/03/27 05:25:25;;;;;;;;;;;0.70;99.90;;;;;;5083216;28;19920;-62
2023/03/27 05:27:52;;;;;;;;;;;0.70;99.90;;;;;;5089003;28;19930;-62
2023/03/27 05:30:20;;;;;;;;;;;0.80;99.90;;;;;;5084297;28;19927;-62
2023/03/27 05:32:50;;;;;;;;;;;0.80;99.90;;;;;;5079357;28;19924;-62
2023/03/27 05:35:18;;;;;;;;;;;0.90;99.90;;;;;;5083538;28;19995;-62
2023/03/27 05:37:46;;;;;;;;;;;0.90;99.90;;;;;;5085085;28;19924;-62
2023/03/27 05:40:14;;;;;;;;;;;0.90;99.90;;;;;;5084107;28;19924;-62
2023/03/27 05:42:41;;;;;;;;;;;1.00;99.90;;;;;;5082962;28;19927;-62
2023/03/27 05:45:08;;;;;;;;;;;1.00;99.90;;;;;;5084248;28;20274;-60
2023/03/27 05:47:42;;;;;;;;;;;1.10;99.90;;;;;;5085024;28;19920;-60
2023/03/27 05:50:10;;;;;;;;;;;1.20;99.90;;;;;;5083175;28;19921;-61
2023/03/27 05:52:36;;;;;;;;;;;1.20;99.90;;;;;;5076659;28;20337;-62
2023/03/27 05:55:03;;;;;;;;;;;1.30;99.90;;;;;;5081305;28;19928;-61
2023/03/27 05:57:30;;;;;;;;;;;1.30;99.90;;;;;;5082018;28;19980;-61
2023/03/27 05:59:56;;;;;;;;;;;1.30;99.90;;;;;;5082095;28;20495;-60
2023/03/27 06:02:24;;;;;;;;;;;1.30;99.90;;;;;;5083320;28;19966;-62
2023/03/27 06:04:51;;;;;;;;;;;1.40;99.90;;;;;;5084832;28;19926;-62
2023/03/27 06:07:19;;;;;;;;;;;1.40;99.90;;;;;;5082645;28;19920;-59
2023/03/27 06:09:45;;;;;;;;;;;1.40;99.90;;;;;;5082560;28;20010;-62
2023/03/27 06:12:12;;;;;;;;;;;1.50;99.90;;;;;;5084703;28;19924;-62
2023/03/27 06:14:38;;;;;;;;;;;1.50;99.90;;;;;;5083399;28;20272;-62
2023/03/27 06:17:05;;;;;;;;;;;1.60;99.90;;;;;;5081871;28;20008;-62
2023/03/27 06:19:31;;;;;;;;;;;1.70;99.90;;;;;;5083756;28;20408;-60
2023/03/27 06:21:58;;;;;;;;;;;1.70;99.90;;;;;;5084043;28;19924;-62
2023/03/27 06:24:26;;;;;;;;;;;1.60;99.90;;;;;;5084211;28;19931;-61
2023/03/27 06:26:52;;;;;;;;;;;1.60;99.90;;;;;;5083133;28;20314;-61
2023/03/27 06:29:19;;;;;;;;;;;1.60;99.90;;;;;;5081892;28;19925;-61
2023/03/27 06:31:46;;;;;;;;;;;1.70;99.90;;;;;;5083646;28;19920;-62
2023/03/27 06:34:13;;;;;;;;;;;1.70;99.90;;;;;;5083950;28;19920;-61
2023/03/27 06:36:40;;;;;;;;;;;1.80;99.90;;;;;;5079733;28;20025;-62
2023/03/27 06:39:07;;;;;;;;;;;1.90;99.90;;;;;;5082119;28;19926;-61
2023/03/27 06:41:35;;;;;;;;;;;2.00;99.90;;;;;;5076471;28;19963;-61
2023/03/27 06:44:01;;;;;;;;;;;2.10;99.90;;;;;;5082221;28;20433;-60
2023/03/27 06:46:28;;;;;;;;;;;2.10;99.90;;;;;;5081512;28;19921;-61
2023/03/27 06:48:55;;;;;;;;;;;2.20;99.90;;;;;;5077894;28;19924;-62
2023/03/27 06:51:21;;;;;;;;;;;2.30;99.90;;;;;;5082602;28;19939;-62
2023/03/27 06:53:48;;;;;;;;;;;2.40;99.90;;;;;;5077818;28;20040;-61
2023/03/27 06:56:14;;;;;;;;;;;2.40;99.90;;;;;;5075657;28;20333;-60
2023/03/27 06:58:42;;;;;;;;;;;2.50;99.90;;;;;;5080710;28;19920;-61
2023/03/27 07:01:09;;;;;;;;;;;2.60;99.90;;;;;;5082489;28;19924;-61
2023/03/27 07:03:35;;;;;;;;;;;2.70;99.90;;;;;;5082897;28;19932;-61
2023/03/27 07:06:02;;;;;;;;;;;2.80;99.90;;;;;;5076163;28;19966;-61
2023/03/27 07:08:28;;;;;;;;;;;2.80;99.90;;;;;;5079774;28;19981;-62
2023/03/27 07:10:55;;;;;;;;;;;2.90;99.90;;;;;;5080714;28;19974;-61
2023/03/27 07:13:21;;;;;;;;;;;3.00;99.90;;;;;;5083859;28;19942;-62
2023/03/27 07:15:50;;;;;;;;;;;3.10;97.80;;;;;;5082603;28;20019;-62
2023/03/27 07:18:17;;;;;;;;;;;3.10;91.40;;;;;;5080774;28;19936;-62
2023/03/27 07:20:46;;;;;;;;;;;3.20;82.70;;;;;;5083356;28;19920;-62
2023/03/27 07:23:12;;;;;;;;;;;3.30;57.00;;;;;;5080974;28;19924;-61
2023/03/27 07:25:39;;;;;;;;;;;3.40;55.60;;;;;;5083236;28;19921;-62
2023/03/27 07:28:08;;;;;;;;;;;3.50;33.60;;;;;;5082507;28;19973;-61
2023/03/27 07:30:35;;;;;;;;;;;3.70;12.80;;;;;;5081004;28;19930;-61
2023/03/27 07:33:04;;;;;;;;;;;3.80;1.50;;;;;;5081478;28;19920;-62
2023/03/27 07:35:30;;;;;;;;;;;3.80;1.00;;;;;;5080135;28;19970;-62
2023/03/27 07:37:57;;;;;;;;;;;3.90;1.00;;;;;;5081012;28;19920;-62
2023/03/27 07:40:25;;;;;;;;;;;4.10;5.70;;;;;;5077596;28;19999;-62
2023/03/27 07:42:52;;;;;;;;;;;4.20;5.00;;;;;;5077185;28;19974;-62
2023/03/27 07:45:19;;;;;;;;;;;4.30;1.00;;;;;;5081146;28;19928;-61
2023/03/27 07:47:46;;;;;;;;;;;4.30;1.00;;;;;;5080224;28;19925;-61
2023/03/27 07:50:16;;;;;;;;;;;4.40;1.00;;;;;;5082632;28;19924;-61
2023/03/27 07:52:43;;;;;;;;;;;4.50;1.00;;;;;;5083261;28;19920;-60
2023/03/27 07:55:11;;;;;;;;;;;4.60;1.00;;;;;;5082205;28;19920;-60
2023/03/27 07:57:38;;;;;;;;;;;4.70;1.00;;;;;;5080301;28;19966;-61
2023/03/27 08:00:10;;;;;;;3.07;1.30;;;4.80;1.00;;;;;;5077506;28;20126;-61
2023/03/27 08:02:37;;;;;;;3.17;1.33;;;4.80;1.00;;;;;;5079431;28;20237;-62
2023/03/27 08:05:05;;;;;;;3.17;1.63;;;4.70;99.90;;;;;;5076897;28;20919;-62
2023/03/27 08:07:34;;;;;;;6.43;1.57;;;4.60;1.00;;;;;;5075500;28;20473;-61
2023/03/27 08:10:00;;;;;;;4.80;1.50;;;4.70;1.00;;;;;;5076672;28;20599;-62
2023/03/27 08:12:28;;;;;;;3.03;1.50;;;4.80;1.00;;;;;;5079300;28;20470;-61
2023/03/27 08:14:55;;;;;;;4.13;1.57;;;4.90;1.00;;;;;;5084418;28;20542;-61
2023/03/27 08:17:21;;;;;;;;;;;5.10;1.00;;;;;;5085061;28;20740;-62
2023/03/27 08:19:48;;;;;;;;;;;5.20;1.00;;;;;;5083496;28;19919;-62
2023/03/27 08:22:14;;;;;;;;;;;5.20;99.90;;;;;;5082263;28;19966;-62
2023/03/27 08:24:42;;;;;;;;;;;5.50;1.00;;;;;;5086779;28;20320;-62
2023/03/27 08:27:09;;;;;;;3.30;1.37;;;5.60;99.90;;;;;;5086160;28;20216;-60
2023/03/27 08:29:36;;;;;;;;;;;5.40;99.90;;;;;;5085100;28;20049;-62
2023/03/27 08:32:02;;;;;;;3.13;1.53;;;5.50;1.00;;;;;;5084290;28;20249;-62
2023/03/27 08:34:29;;;;;;;6.17;1.80;;;5.60;99.90;;;;;;5085972;28;20492;-62
2023/03/27 08:36:56;;;;;;;7.40;2.00;;;5.60;99.90;;;;;;5084966;28;20826;-62
2023/03/27 08:39:22;;;;;;;;;;;5.60;99.90;;;;;;5084264;28;20288;-62
2023/03/27 08:41:53;;;;;;;4.50;1.80;;;5.70;1.00;;;;;;5085779;28;20214;-61
2023/03/27 08:44:23;;;;;;;6.82;1.83;;;5.40;99.90;;;;;;5084758;28;20924;-61
2023/03/27 08:46:54;;;;;;;5.77;1.83;;;5.20;99.90;;;;;;5084660;28;20215;-61
2023/03/27 08:49:21;;;;;;;;;;;5.20;1.00;;;;;;5086461;28;20352;-61
2023/03/27 08:51:50;;;;;;;;;;;4.90;1.00;;;;;;5089448;28;19924;-61
2023/03/27 08:54:20;;;;;;;4.57;2.00;;;4.90;99.90;;;;;;5087501;28;20207;-61
2023/03/27 08:56:47;;;;;;;3.77;2.00;;;4.80;99.90;;;;;;5084278;28;20486;-61
2023/03/27 08:59:18;;;;;;;5.47;1.47;;;4.90;1.00;;;;;;5091253;28;20454;-62
2023/03/27 09:01:52;;;;;;;8.37;1.60;;;5.20;99.90;;;;;;5086952;28;20488;-61
2023/03/27 09:04:30;;;;;;;9.18;2.25;;;5.30;99.90;;;;;;5082083;28;20461;-61
2023/03/27 09:07:01;;;;;;;7.57;2.30;;;5.50;99.90;;;;;;5081759;28;20928;-61
2023/03/27 09:09:52;;;;;;;7.68;2.00;;;5.70;99.90;;;;;;5079513;28;20411;-61
2023/03/27 09:12:34;;;;;;;;;;;5.60;99.90;;;;;;5083153;28;20131;-61
2023/03/27 09:15:04;;;;;;;;;;;5.60;99.90;;;;;;5082906;28;19931;-61
2023/03/27 09:17:33;;;;;;;;;;;5.50;99.90;;;;;;5083486;28;19920;-61
2023/03/27 09:20:04;;;;;;;;;;;5.80;99.90;;;;;;5084168;28;19924;-61
2023/03/27 09:22:40;;;;;;;3.33;1.10;;;5.70;99.90;;;;;;5085379;28;20343;-60
2023/03/27 09:25:19;;;;;;;4.07;1.30;;;5.70;1.00;;;;;;5083067;28;20466;-61
2023/03/27 09:27:47;;;;;;;3.83;1.23;;;5.80;99.90;;;;;;5081319;28;20844;-61
2023/03/27 09:30:18;;;;;;;;;;;5.80;99.90;;;;;;5079721;28;20283;-61
2023/03/27 09:32:45;;;;;;;;;;;5.80;19.00;;;;;;5083625;28;20011;-62
2023/03/27 09:35:13;;;;;;;;;;;5.90;1.00;;;;;;5085163;28;20443;-61
2023/03/27 09:37:40;;;;;;;;;;;6.10;51.80;;;;;;5084008;28;20386;-61
2023/03/27 09:40:11;;;;;;;;;;;6.30;1.00;;;;;;5082921;28;20014;-61
2023/03/27 09:42:40;;;;;;;6.07;1.30;;;6.40;99.90;;;;;;5082495;28;20407;-61
2023/03/27 09:45:12;;;;;;;7.22;1.55;;;6.50;91.00;;;;;;5084101;28;20811;-61
2023/03/27 09:47:45;;;;;;;6.88;1.40;;;6.80;97.00;;;;;;5082892;28;20420;-62
2023/03/27 09:50:24;;;;;;;4.03;1.30;;;6.50;1.00;;;;;;5077683;28;20773;-61
2023/03/27 09:52:53;;;;;;;5.15;1.30;;;6.40;1.00;;;;;;5082426;28;20824;-62
2023/03/27 09:55:25;;;;;;;5.80;1.20;;;6.40;1.00;;;;;;5076721;28;20427;-62
2023/03/27 09:57:57;;;;;;;3.60;1.40;;;6.60;1.00;;;;;;5075528;28;20418;-62
2023/03/27 10:00:30;;;;;;;3.80;1.00;;;7.00;1.00;;;;;;5083069;28;20480;-62
2023/03/27 10:03:04;;;;;;;6.30;1.33;;;7.30;1.00;;;;;;5080891;28;20510;-63
2023/03/27 10:05:31;;;;;;;5.07;1.33;;;7.20;1.00;;;;;;5080315;28;20995;-63
2023/03/27 10:07:59;;;;;;;2.60;1.07;;;7.00;1.00;;;;;;5082202;28;20413;-62
2023/03/27 10:10:30;;;;;;;4.50;1.00;;;6.50;1.00;;;;;;5083219;28;20757;-62
2023/03/27 10:13:02;;;;;;;4.70;1.50;;;6.30;1.00;;;;;;5081834;28;20947;-62
2023/03/27 10:15:32;;;;;;;5.10;1.05;;;6.50;1.00;;;;;;5080581;28;20411;-63
2023/03/27 10:18:03;;;;;;;3.22;1.10;;;6.80;1.00;;;;;;5081401;28;20436;-65
2023/03/27 10:20:30;;;;;;;6.65;1.30;;;7.00;1.00;;;;;;5083011;28;20420;-61
2023/03/27 10:23:00;;;;;;;5.68;1.42;;;7.20;1.00;;;;;;5078827;28;20409;-62
2023/03/27 10:25:31;;;;;;;5.85;1.50;;;7.20;99.90;;;;;;5083567;28;20888;-63
2023/03/27 10:28:10;;;;;;;4.60;1.25;;;6.90;99.90;;;;;;5083669;28;20410;-62
2023/03/27 10:30:39;;;;;;;4.88;0.95;;;6.90;99.90;;;;;;5079451;28;20464;-62
2023/03/27 10:33:08;;;;;;;3.78;1.25;;;7.00;99.90;;;;;;5080062;28;20415;-63
2023/03/27 10:35:37;;;;;;;3.83;1.13;;;7.00;99.90;;;;;;5082107;28;20836;-62
2023/03/27 10:38:10;;;;;;;5.40;1.30;;;7.30;99.90;;;;;;5082270;28;20414;-63
2023/03/27 10:40:39;;;;;;;6.13;0.90;;;7.50;99.90;;;;;;5081493;28;20469;-63
2023/03/27 10:43:11;;;;;;;3.88;1.10;;;7.50;99.90;;;;;;5079959;28;20473;-62
2023/03/27 10:45:45;;;;;;;7.18;1.45;;;7.30;99.90;;;;;;5080908;28;20950;-62
2023/03/27 10:48:23;;;;;;;2.92;1.15;;;7.40;99.90;;;;;;5076332;28;20410;-62
2023/03/27 10:50:56;;;;;;;3.70;0.95;;;7.50;99.90;;;;;;5080129;28;20404;-62
2023/03/27 10:53:31;;;;;;;4.05;0.98;;;7.70;99.90;;;;;;5082640;28;20490;-61
2023/03/27 10:56:04;;;;;;;6.00;0.88;;;7.80;99.90;;;;;;5080198;28;20774;-63
2023/03/27 10:58:35;;;;;;;2.30;0.90;;;7.90;99.90;;;;;;5079899;28;20404;-62
2023/03/27 11:01:07;;;;;;;2.55;1.20;;;8.00;99.90;;;;;;5080642;28;20493;-63
2023/03/27 11:03:39;;;;;;;3.85;1.23;;;8.10;99.90;;;;;;5073681;28;20485;-61
2023/03/27 11:06:14;;;;;;;4.10;1.25;;;7.80;99.90;;;;;;5076087;28;21374;-62
2023/03/27 11:08:51;;;;;;;3.08;1.02;;;7.70;99.90;;;;;;5076580;28;20500;-62
2023/03/27 11:11:24;;;;;;;5.25;1.17;;;7.90;99.90;;;;;;5077100;28;20506;-62
2023/03/27 11:13:51;;;;;;;3.70;1.10;;;7.90;99.90;;;;;;5082091;28;20467;-61
2023/03/27 11:16:23;;;;;;;2.78;1.15;;;8.30;99.90;;;;;;5075950;28;20411;-63
2023/03/27 11:18:55;;;;;;;2.80;0.80;;;8.30;99.90;;;;;;5079694;28;20453;-63
2023/03/27 11:21:29;;;;;;;4.57;1.10;;;8.30;99.90;;;;;;5080461;28;20412;-63
2023/03/27 11:23:58;;;;;;;1.35;0.63;;;8.00;99.90;;;;;;5079071;28;20853;-63
2023/03/27 11:26:29;;;;;;;1.98;0.85;;;7.90;99.90;;;;;;5080137;28;20440;-63
2023/03/27 11:29:02;;;;;;;4.75;1.00;;;7.70;99.90;;;;;;5081922;28;20826;-62
2023/03/27 11:31:37;;;;;;;2.72;0.90;;;7.50;99.90;;;;;;5081795;28;20444;-63
2023/03/27 11:34:10;;;;;;;3.72;1.10;;;7.30;99.90;;;;;;5077544;28;20461;-60
2023/03/27 11:36:45;;;;;;;4.82;1.20;;;7.30;99.90;;;;;;5078931;28;20959;-61
2023/03/27 11:39:21;;;;;;;3.67;0.88;;;7.20;99.90;;;;;;5079559;28;20438;-62
2023/03/27 11:41:52;;;;;;;4.07;0.65;;;7.10;99.90;;;;;;5078171;28;20407;-62
2023/03/27 11:44:18;;;;;;;3.08;0.80;;;7.20;99.90;;;;;;5079431;28;20548;-62
2023/03/27 11:46:58;;;;;;;3.65;0.90;;;7.40;99.90;;;;;;5080616;28;20839;-63
2023/03/27 11:49:46;;;;;;;2.55;0.70;;;7.70;1.00;;;;;;5078947;28;20946;-62
2023/03/27 11:52:26;;;;;;;2.78;0.73;;;7.90;99.90;;;;;;5076632;28;20766;-67
2023/03/27 11:55:06;;;;;;;2.63;0.73;;;7.80;1.00;;;;;;5070916;28;20402;-68
2023/03/27 11:57:39;;;;;;;4.20;1.00;;;7.90;1.00;;;;;;5074827;28;20413;-68
2023/03/27 12:00:25;;;;;;;3.30;0.98;;;8.20;1.00;;;;;;5082955;28;20413;-64
2023/03/27 12:03:16;;;;;;;1.42;0.60;;;8.50;1.00;;;;;;5077871;28;20494;-64
2023/03/27 12:06:00;;;;;;;2.35;0.70;;;8.20;99.90;;;;;;5050462;28;20816;-66
2023/03/27 12:08:36;;;;;;;3.42;0.90;;;7.90;99.90;;;;;;5079057;28;20415;-65
2023/03/27 12:11:07;;;;;;;2.47;0.90;;;7.10;1.00;;;;;;5082351;28;20437;-65
2023/03/27 12:14:17;;;;;;;2.83;1.00;;;7.10;1.00;;;;;;5078588;28;20505;-63
2023/03/27 12:16:55;;;;;;;3.53;1.00;;;6.70;1.00;;;;;;5077911;28;20943;-63
2023/03/27 12:19:54;;;;;;;5.43;1.33;;;6.20;24.30;;;;;;5080355;28;20797;-62
2023/03/27 12:22:36;;;;;;;2.83;1.00;;;6.40;99.90;;;;;;5082002;28;20463;-61
2023/03/27 12:25:37;;;;;;;3.03;1.35;;;6.40;99.90;;;;;;5085098;28;20434;-64
2023/03/27 12:28:15;;;;;;;2.65;0.80;;;6.40;1.00;;;;;;5086965;28;20446;-63
2023/03/27 12:30:53;;;;;;;2.35;0.85;;;6.50;1.00;;;;;;5081359;28;20409;-64
2023/03/27 12:33:41;;;;;;;3.33;1.10;;;6.70;92.80;;;;;;5093869;28;20402;-63
2023/03/27 12:36:12;;;;;;;2.45;0.90;;;7.10;1.00;;;;;;5088543;28;20407;-62
2023/03/27 12:38:42;;;;;;;4.60;1.10;;;7.40;1.00;;;;;;5083808;28;20423;-63
2023/03/27 12:41:20;;;;;;;1.77;0.70;;;7.70;1.00;;;;;;5082629;28;20765;-63
2023/03/27 12:43:48;;;;;;;4.05;0.88;;;7.80;99.90;;;;;;5079238;28;20774;-64
2023/03/27 12:46:30;;;;;;;3.37;0.90;;;7.90;99.90;;;;;;5080762;28;20411;-63
2023/03/27 12:49:00;;;;;;;4.10;1.20;;;8.10;99.90;;;;;;5081453;28;20494;-64
2023/03/27 12:51:38;;;;;;;2.92;0.90;;;8.30;99.90;;;;;;5083700;28;20932;-64
2023/03/27 12:54:23;;;;;;;4.07;0.98;;;8.40;99.90;;;;;;5081359;28;20461;-65
2023/03/27 12:56:52;;;;;;;2.70;0.85;;;8.50;99.90;;;;;;5080293;28;20426;-64
2023/03/27 12:59:22;;;;;;;1.52;0.90;;;8.30;99.90;;;;;;5079494;28;20419;-64
2023/03/27 13:02:20;;;;;;;3.30;0.70;;;8.10;99.90;;;;;;5081360;28;20492;-64
2023/03/27 13:05:10;;;;;;;5.57;1.25;;;7.50;99.90;;;;;;5078450;28;20483;-63
2023/03/27 13:07:47;;;;;;;10.32;2.10;;;7.10;99.90;;;;;;5081270;28;20406;-63
2023/03/27 13:10:29;;;;;;;3.50;1.00;;;6.10;1.00;;;;;;5082251;28;20493;-62
2023/03/27 13:13:20;;;;;;;5.78;1.15;;;5.60;1.00;;;;;;5080444;28;20937;-63
2023/03/27 13:16:14;;;;;;;3.17;1.20;;;5.00;1.00;;;;;;5080826;28;20413;-62
2023/03/27 13:19:13;;;;;;;4.25;1.00;;;5.00;99.90;;;;;;5077514;28;20418;-62
2023/03/27 13:21:50;;;;;;;6.22;1.33;;;4.80;1.00;;;;;;5080819;28;20459;-65
2023/03/27 13:24:34;;;;;;;3.50;1.27;;;4.70;99.90;;;;;;5081949;28;20429;-63
2023/03/27 13:27:13;;;;;;;3.33;1.45;;;4.60;1.00;;;;;;5077284;28;20950;-63
2023/03/27 13:29:41;;;;;;;3.85;1.40;;;4.80;1.00;;;;;;5074077;28;20840;-63
2023/03/27 13:32:30;;;;;;;2.83;1.60;;;4.70;16.90;;;;;;5077780;28;20448;-62
2023/03/27 13:35:08;;;;;;;2.13;1.02;;;4.40;14.70;;;;;;5077479;28;20483;-62
2023/03/27 13:37:57;;;;;;;2.67;1.35;;;4.20;31.90;;;;;;5076085;28;20455;-62
2023/03/27 13:40:29;;;;;;;1.88;1.20;;;3.80;45.00;;;;;;5062858;28;20435;-63
2023/03/27 13:43:10;;;;;;;3.58;1.58;;;3.80;81.40;;;;;;5082667;28;20497;-63
2023/03/27 13:45:45;;;;;;;1.92;1.35;;;3.90;94.10;;;;;;5079510;28;20792;-63
2023/03/27 13:48:49;;;;;;;2.70;1.50;;;4.00;99.30;;;;;;5071397;28;20955;-63
2023/03/27 13:51:50;;;;;;;2.78;1.27;;;3.90;99.90;;;;;;5072430;28;20465;-63
2023/03/27 13:54:51;;;;;;;2.80;1.30;;;4.20;99.90;;;;;;5074542;28;20416;-62
2023/03/27 13:57:37;;;;;;;4.60;1.40;;;4.50;99.90;;;;;;5070027;28;20816;-63
2023/03/27 14:00:28;;;;;;;3.15;1.13;;;4.70;99.90;;;;;;5076661;28;20746;-62
2023/03/27 14:03:34;;;;;;;2.28;1.15;;;4.70;90.40;;;;;;5079448;28;20498;-63
2023/03/27 14:06:19;;;;;;;2.88;1.38;;;4.80;69.80;;;;;;5080352;28;20417;-63
2023/03/27 14:08:53;;;;;;;3.20;1.27;;;4.90;73.10;;;;;;5073289;28;20422;-63
2023/03/27 14:11:30;;;;;;;2.92;1.40;;;5.00;86.50;;;;;;5078489;28;20453;-62
2023/03/27 14:14:21;;;;;;;5.35;1.58;;;4.90;57.90;;;;;;5077279;28;20414;-62
2023/03/27 14:17:14;;;;;;;4.43;1.67;;;4.90;57.60;;;;;;5078296;28;20419;-62